Time,TemperatureF,DewpointF,PressureIn,WindDirection,WindDirectionDegrees,WindSpeedMPH,WindSpeedGustMPH,Humidity,HourlyPrecipIn,Conditions,Clouds,dailyrainin,SolarRadiationWatts/m^2,SoftwareType,DateUTC
2013-07-14 00:01:00,71.0,62.0,-100.00,NW,318,4.0,8.0,72,0.00,,,0.00,1.000000,,2013-07-14 06:01:00,
2013-07-14 00:11:00,71.0,62.0,-100.00,NW,318,4.0,8.0,72,0.00,,,0.00,1.000000,,2013-07-14 06:11:00,
2013-07-14 00:22:00,71.0,62.0,-100.00,NW,318,4.0,8.0,72,0.00,,,0.00,1.000000,,2013-07-14 06:22:00,
2013-07-14 00:32:00,71.0,62.0,-100.00,NW,318,4.0,8.0,72,0.00,,,0.00,1.000000,,2013-07-14 06:32:00,
2013-07-14 01:02:00,69.0,60.0,-100.00,North,357,7.0,14.0,74,0.00,,,0.00,1.000000,,2013-07-14 07:02:00,
2013-07-14 01:12:00,69.0,60.0,-100.00,North,357,7.0,14.0,74,0.00,,,0.00,1.000000,,2013-07-14 07:12:00,
2013-07-14 01:22:00,69.0,60.0,-100.00,North,357,7.0,14.0,74,0.00,,,0.00,1.000000,,2013-07-14 07:22:00,
2013-07-14 01:33:00,69.0,60.0,-100.00,North,357,7.0,14.0,74,0.00,,,0.00,1.000000,,2013-07-14 07:33:00,
2013-07-14 02:01:00,66.0,60.0,-100.00,North,350,6.0,14.0,81,0.00,,,0.00,1.000000,,2013-07-14 08:01:00,
2013-07-14 02:11:00,66.0,60.0,-100.00,North,350,6.0,14.0,81,0.00,,,0.00,1.000000,,2013-07-14 08:11:00,
2013-07-14 02:22:00,66.0,60.0,-100.00,North,350,6.0,14.0,81,0.00,,,0.00,1.000000,,2013-07-14 08:22:00,
2013-07-14 02:32:00,66.0,60.0,-100.00,North,350,6.0,14.0,81,0.00,,,0.00,1.000000,,2013-07-14 08:32:00,
2013-07-14 03:01:00,64.0,58.0,-100.00,NNW,335,5.0,16.0,81,0.00,,,0.00,1.000000,,2013-07-14 09:01:00,
2013-07-14 03:11:00,64.0,58.0,-100.00,NNW,335,5.0,16.0,81,0.00,,,0.00,1.000000,,2013-07-14 09:11:00,
2013-07-14 03:22:00,64.0,58.0,-100.00,NNW,335,5.0,16.0,81,0.00,,,0.00,1.000000,,2013-07-14 09:22:00,
2013-07-14 03:32:00,64.0,58.0,-100.00,NNW,335,5.0,16.0,81,0.00,,,0.00,1.000000,,2013-07-14 09:32:00,
2013-07-14 04:01:00,63.0,56.0,-100.00,NW,317,6.0,19.0,78,0.00,,,0.00,1.000000,,2013-07-14 10:01:00,
2013-07-14 04:11:00,63.0,56.0,-100.00,NW,317,6.0,19.0,78,0.00,,,0.00,1.000000,,2013-07-14 10:11:00,
2013-07-14 04:22:00,63.0,56.0,-100.00,NW,317,6.0,19.0,78,0.00,,,0.00,1.000000,,2013-07-14 10:22:00,
2013-07-14 04:32:00,63.0,56.0,-100.00,NW,317,6.0,19.0,78,0.00,,,0.00,1.000000,,2013-07-14 10:32:00,
2013-07-14 05:02:00,63.0,57.0,-100.00,North,357,6.0,13.0,80,0.00,,,0.00,1.000000,,2013-07-14 11:02:00,
2013-07-14 05:11:00,63.0,57.0,-100.00,North,357,6.0,13.0,80,0.00,,,0.00,1.000000,,2013-07-14 11:11:00,
2013-07-14 05:22:00,63.0,57.0,-100.00,North,357,6.0,13.0,80,0.00,,,0.00,1.000000,,2013-07-14 11:22:00,
2013-07-14 05:32:00,63.0,57.0,-100.00,North,357,6.0,13.0,80,0.00,,,0.00,1.000000,,2013-07-14 11:32:00,
2013-07-14 06:02:00,62.0,57.0,-100.00,NNW,347,5.0,13.0,83,0.00,,,0.00,1.000000,,2013-07-14 12:02:00,
2013-07-14 06:11:00,62.0,57.0,-100.00,NNW,347,5.0,13.0,83,0.00,,,0.00,1.000000,,2013-07-14 12:11:00,
2013-07-14 06:22:00,62.0,57.0,-100.00,NNW,347,5.0,13.0,83,0.00,,,0.00,1.000000,,2013-07-14 12:22:00,
2013-07-14 06:33:00,62.0,57.0,-100.00,NNW,347,5.0,13.0,83,0.00,,,0.00,1.000000,,2013-07-14 12:33:00,
2013-07-14 07:01:00,62.0,57.0,-100.00,North,357,7.0,13.0,84,0.00,,,0.00,34.000000,,2013-07-14 13:01:00,
2013-07-14 07:11:00,62.0,57.0,-100.00,North,357,7.0,13.0,84,0.00,,,0.00,34.000000,,2013-07-14 13:11:00,
2013-07-14 07:22:00,62.0,57.0,-100.00,North,357,7.0,13.0,84,0.00,,,0.00,34.000000,,2013-07-14 13:22:00,
2013-07-14 07:32:00,62.0,57.0,-100.00,North,357,7.0,13.0,84,0.00,,,0.00,34.000000,,2013-07-14 13:32:00,
2013-07-14 08:02:00,63.0,57.0,-100.00,NW,319,4.0,10.0,81,0.00,,,0.00,101.000000,,2013-07-14 14:02:00,
2013-07-14 08:11:00,63.0,57.0,-100.00,NW,319,4.0,10.0,81,0.00,,,0.00,101.000000,,2013-07-14 14:11:00,
2013-07-14 08:23:00,63.0,57.0,-100.00,NW,319,4.0,10.0,81,0.00,,,0.00,101.000000,,2013-07-14 14:23:00,
2013-07-14 08:33:00,63.0,57.0,-100.00,NW,319,4.0,10.0,81,0.00,,,0.00,101.000000,,2013-07-14 14:33:00,
2013-07-14 09:01:00,63.0,56.0,-100.00,WNW,296,4.0,7.0,79,0.00,,,0.00,77.000000,,2013-07-14 15:01:00,
2013-07-14 09:12:00,63.0,56.0,-100.00,WNW,296,4.0,7.0,79,0.00,,,0.00,77.000000,,2013-07-14 15:12:00,
2013-07-14 09:22:00,63.0,56.0,-100.00,WNW,296,4.0,7.0,79,0.00,,,0.00,77.000000,,2013-07-14 15:22:00,
2013-07-14 09:32:00,63.0,56.0,-100.00,WNW,296,4.0,7.0,79,0.00,,,0.00,77.000000,,2013-07-14 15:32:00,
2013-07-14 10:01:00,65.0,57.0,-100.00,NW,311,2.0,6.0,76,0.00,,,0.00,91.000000,,2013-07-14 16:01:00,
2013-07-14 10:11:00,65.0,57.0,-100.00,NW,311,2.0,6.0,76,0.00,,,0.00,91.000000,,2013-07-14 16:11:00,
2013-07-14 10:22:00,65.0,57.0,-100.00,NW,311,2.0,6.0,76,0.00,,,0.00,91.000000,,2013-07-14 16:22:00,
2013-07-14 10:32:00,65.0,57.0,-100.00,NW,311,2.0,6.0,76,0.00,,,0.00,91.000000,,2013-07-14 16:32:00,
2013-07-14 11:02:00,67.0,57.0,-100.00,North,352,2.0,8.0,70,0.00,,,0.00,178.000000,,2013-07-14 17:02:00,
2013-07-14 11:11:00,67.0,57.0,-100.00,North,352,2.0,8.0,70,0.00,,,0.00,178.000000,,2013-07-14 17:11:00,
2013-07-14 11:22:00,67.0,57.0,-100.00,North,352,2.0,8.0,70,0.00,,,0.00,178.000000,,2013-07-14 17:22:00,
2013-07-14 11:32:00,67.0,57.0,-100.00,North,352,2.0,8.0,70,0.00,,,0.00,178.000000,,2013-07-14 17:32:00,
2013-07-14 12:01:00,68.0,58.0,-100.00,NNE,26,3.0,5.0,70,0.00,,,0.00,230.000000,,2013-07-14 18:01:00,
2013-07-14 12:11:00,68.0,58.0,-100.00,NNE,26,3.0,5.0,70,0.00,,,0.00,230.000000,,2013-07-14 18:11:00,
2013-07-14 12:22:00,68.0,58.0,-100.00,NNE,26,3.0,5.0,70,0.00,,,0.00,230.000000,,2013-07-14 18:22:00,
2013-07-14 12:32:00,68.0,58.0,-100.00,NNE,26,3.0,5.0,70,0.00,,,0.00,230.000000,,2013-07-14 18:32:00,
2013-07-14 13:01:00,64.0,60.0,-100.00,ENE,77,5.0,9.0,86,0.00,,,0.00,175.000000,,2013-07-14 19:01:00,
2013-07-14 13:11:00,64.0,60.0,-100.00,ENE,77,5.0,9.0,86,0.00,,,0.00,175.000000,,2013-07-14 19:11:00,
2013-07-14 13:22:00,64.0,60.0,-100.00,ENE,77,5.0,9.0,86,0.00,,,0.00,175.000000,,2013-07-14 19:22:00,
2013-07-14 13:32:00,64.0,60.0,-100.00,ENE,77,5.0,9.0,86,0.00,,,0.00,175.000000,,2013-07-14 19:32:00,
2013-07-14 14:01:00,65.0,60.0,-100.00,ENE,69,4.0,9.0,84,0.00,,,0.00,327.000000,,2013-07-14 20:01:00,
2013-07-14 14:11:00,65.0,60.0,-100.00,ENE,69,4.0,9.0,84,0.00,,,0.00,327.000000,,2013-07-14 20:11:00,
2013-07-14 14:22:00,65.0,60.0,-100.00,ENE,69,4.0,9.0,84,0.00,,,0.00,327.000000,,2013-07-14 20:22:00,
2013-07-14 14:32:00,65.0,60.0,-100.00,ENE,69,4.0,9.0,84,0.00,,,0.00,327.000000,,2013-07-14 20:32:00,
2013-07-14 15:01:00,68.0,62.0,-100.00,NE,42,4.0,9.0,80,0.00,,,0.00,353.000000,,2013-07-14 21:01:00,
2013-07-14 15:11:00,68.0,62.0,-100.00,NE,42,4.0,9.0,80,0.00,,,0.00,353.000000,,2013-07-14 21:11:00,
2013-07-14 15:22:00,68.0,62.0,-100.00,NE,42,4.0,9.0,80,0.00,,,0.00,353.000000,,2013-07-14 21:22:00,
2013-07-14 15:32:00,68.0,62.0,-100.00,NE,42,4.0,9.0,80,0.00,,,0.00,353.000000,,2013-07-14 21:32:00,
2013-07-14 16:01:00,73.0,61.0,-100.00,East,80,5.0,12.0,67,0.00,,,0.00,748.000000,,2013-07-14 22:01:00,
2013-07-14 16:11:00,73.0,61.0,-100.00,East,80,5.0,12.0,67,0.00,,,0.00,748.000000,,2013-07-14 22:11:00,
2013-07-14 16:22:00,73.0,61.0,-100.00,East,80,5.0,12.0,67,0.00,,,0.00,748.000000,,2013-07-14 22:22:00,
2013-07-14 16:32:00,73.0,61.0,-100.00,East,80,5.0,12.0,67,0.00,,,0.00,748.000000,,2013-07-14 22:32:00,
2013-07-14 17:01:00,70.0,60.0,-100.00,ENE,62,6.0,11.0,71,0.00,,,0.00,596.000000,,2013-07-14 23:01:00,
2013-07-14 17:11:00,70.0,60.0,-100.00,ENE,62,6.0,11.0,71,0.00,,,0.00,596.000000,,2013-07-14 23:11:00,
2013-07-14 17:22:00,70.0,60.0,-100.00,ENE,62,6.0,11.0,71,0.00,,,0.00,596.000000,,2013-07-14 23:22:00,
2013-07-14 17:32:00,70.0,60.0,-100.00,ENE,62,6.0,11.0,71,0.00,,,0.00,596.000000,,2013-07-14 23:32:00,
2013-07-14 18:02:00,62.0,58.0,-100.00,NE,52,5.0,14.0,86,0.00,,,0.00,149.000000,,2013-07-15 00:02:00,
2013-07-14 18:11:00,62.0,58.0,-100.00,NE,52,5.0,14.0,86,0.00,,,0.00,149.000000,,2013-07-15 00:11:00,
2013-07-14 18:22:00,62.0,58.0,-100.00,NE,52,5.0,14.0,86,0.00,,,0.00,149.000000,,2013-07-15 00:22:00,
2013-07-14 18:32:00,62.0,58.0,-100.00,NE,52,5.0,14.0,86,0.00,,,0.00,149.000000,,2013-07-15 00:32:00,
2013-07-14 19:01:00,58.0,57.0,-100.00,NE,37,5.0,10.0,97,0.00,,,0.00,75.000000,,2013-07-15 01:01:00,
2013-07-14 19:11:00,58.0,57.0,-100.00,NE,37,5.0,10.0,97,0.00,,,0.00,75.000000,,2013-07-15 01:11:00,
2013-07-14 19:22:00,58.0,57.0,-100.00,NE,37,5.0,10.0,97,0.00,,,0.00,75.000000,,2013-07-15 01:22:00,
2013-07-14 19:32:00,58.0,57.0,-100.00,NE,37,5.0,10.0,97,0.00,,,0.00,75.000000,,2013-07-15 01:32:00,
2013-07-14 20:02:00,57.0,57.0,-100.00,ENE,58,2.0,9.0,100,0.00,,,0.00,23.000000,,2013-07-15 02:02:00,
2013-07-14 20:11:00,57.0,57.0,-100.00,ENE,58,2.0,9.0,100,0.00,,,0.00,23.000000,,2013-07-15 02:11:00,
2013-07-14 20:22:00,57.0,57.0,-100.00,ENE,58,2.0,9.0,100,0.00,,,0.00,23.000000,,2013-07-15 02:22:00,
2013-07-14 20:32:00,57.0,57.0,-100.00,ENE,58,2.0,9.0,100,0.00,,,0.00,23.000000,,2013-07-15 02:32:00,
2013-07-14 21:02:00,56.0,56.0,-100.00,East,91,3.0,5.0,100,0.00,,,0.00,5.000000,,2013-07-15 03:02:00,
2013-07-14 21:11:00,56.0,56.0,-100.00,East,91,3.0,5.0,100,0.00,,,0.00,5.000000,,2013-07-15 03:11:00,
2013-07-14 21:22:00,56.0,56.0,-100.00,East,91,3.0,5.0,100,0.00,,,0.00,5.000000,,2013-07-15 03:22:00,
2013-07-14 21:32:00,56.0,56.0,-100.00,East,91,3.0,5.0,100,0.00,,,0.00,5.000000,,2013-07-15 03:32:00,
2013-07-14 22:01:00,57.0,57.0,-100.00,NNW,335,1.0,3.0,100,0.00,,,0.00,1.000000,,2013-07-15 04:01:00,
2013-07-14 22:11:00,57.0,57.0,-100.00,NNW,335,1.0,3.0,100,0.00,,,0.00,1.000000,,2013-07-15 04:11:00,
2013-07-14 22:22:00,57.0,57.0,-100.00,NNW,335,1.0,3.0,100,0.00,,,0.00,1.000000,,2013-07-15 04:22:00,
2013-07-14 22:32:00,57.0,57.0,-100.00,NNW,335,1.0,3.0,100,0.00,,,0.00,1.000000,,2013-07-15 04:32:00,
2013-07-14 23:02:00,57.0,57.0,-100.00,WNW,298,3.0,4.0,100,0.00,,,0.00,1.000000,,2013-07-15 05:02:00,
2013-07-14 23:11:00,57.0,57.0,-100.00,WNW,298,3.0,4.0,100,0.00,,,0.00,1.000000,,2013-07-15 05:11:00,
2013-07-14 23:21:00,57.0,57.0,-100.00,WNW,298,3.0,4.0,100,0.00,,,0.00,1.000000,,2013-07-15 05:21:00,
2013-07-14 23:32:00,57.0,57.0,-100.00,WNW,298,3.0,4.0,100,0.00,,,0.00,1.000000,,2013-07-15 05:32:00,